Time;durP1;ratioP1;P1;durP2;ratioP2;P2;SDS_P1;SDS_P2;PMS_P1;PMS_P2;Temp;Humidity;BMP_temperature;BMP_pressure;BME280_temperature;BME280_humidity;BME280_pressure;Samples;Min_cycle;Max_cycle;Signal;HPM_P1;HPM_P2
2022/07/10 00:00:21;;;;;;;;;2.25;2.25;;;;;23.38;38.64;102204.56;4918438;28;46130;-44
2022/07/10 00:02:47;;;;;;;;;3.00;3.00;;;;;23.35;38.16;102196.75;4917446;28;45272;-44
2022/07/10 00:05:12;;;;;;;;;4.00;4.00;;;;;23.34;38.65;102196.84;4918383;28;45307;-46
2022/07/10 00:07:37;;;;;;;;;3.00;3.00;;;;;23.31;38.80;102193.38;4918350;28;45485;-45
2022/07/10 00:10:04;;;;;;;;;3.00;3.00;;;;;23.31;38.97;102206.63;4918079;28;45399;-44
2022/07/10 00:12:30;;;;;;;;;3.25;3.25;;;;;23.30;38.75;102206.69;4918111;28;45327;-44
2022/07/10 00:14:55;;;;;;;;;3.00;3.00;;;;;23.30;38.48;102209.34;4918446;28;45371;-44
2022/07/10 00:17:21;;;;;;;;;3.75;2.00;;;;;23.27;38.61;102205.03;4919308;28;45217;-44
2022/07/10 00:19:46;;;;;;;;;4.25;2.00;;;;;23.27;38.52;102222.69;4904291;28;45338;-44
2022/07/10 00:22:12;;;;;;;;;3.00;2.00;;;;;23.26;39.04;102210.41;4921659;28;45399;-49
2022/07/10 00:24:37;;;;;;;;;2.00;2.00;;;;;23.26;38.67;102210.41;4921274;28;45402;-47
2022/07/10 00:27:03;;;;;;;;;3.00;3.00;;;;;23.20;38.98;102206.25;4921655;28;45320;-44
2022/07/10 00:29:28;;;;;;;;;3.00;3.00;;;;;23.18;39.06;102218.66;4920795;28;46258;-44
2022/07/10 00:31:56;;;;;;;;;3.00;3.00;;;;;23.18;38.77;102213.34;4921764;28;45336;-46
2022/07/10 00:34:22;;;;;;;;;6.00;6.00;;;;;23.19;39.01;102214.22;4921742;28;45301;-47
2022/07/10 00:36:47;;;;;;;;;6.67;5.33;;;;;23.17;38.90;102217.81;4920980;28;48275;-49
2022/07/10 00:39:12;;;;;;;;;5.50;5.00;;;;;23.17;39.04;102216.91;4921203;28;46591;-45
2022/07/10 00:41:38;;;;;;;;;7.00;6.00;;;;;23.16;39.18;102208.16;4921012;28;45230;-46
2022/07/10 00:44:04;;;;;;;;;10.50;7.25;;;;;23.15;39.15;102209.06;4921216;28;45342;-45
2022/07/10 00:46:31;;;;;;;;;9.00;7.25;;;;;23.15;39.34;102214.34;4921372;28;45668;-45
2022/07/10 00:48:57;;;;;;;;;8.00;8.00;;;;;23.14;39.39;102201.22;4921169;28;46490;-47
2022/07/10 00:51:28;;;;;;;;;8.50;7.25;;;;;23.12;39.36;102209.19;4921344;28;45381;-46
2022/07/10 00:53:53;;;;;;;;;6.00;4.50;;;;;23.10;39.41;102208.41;4921540;28;45349;-45
2022/07/10 00:56:22;;;;;;;;;4.50;4.25;;;;;23.07;39.68;102208.56;4921406;28;45598;-44
2022/07/10 00:58:49;;;;;;;;;5.25;5.00;;;;;23.04;39.83;102203.41;4920776;28;48575;-45
2022/07/10 01:01:16;;;;;;;;;4.00;4.00;;;;;23.02;39.98;102197.31;4921260;28;45817;-46
2022/07/10 01:03:43;;;;;;;;;4.00;3.00;;;;;23.00;39.85;102199.16;4920749;28;45363;-49
2022/07/10 01:06:09;;;;;;;;;4.00;4.00;;;;;22.98;40.06;102201.88;4921290;28;45332;-44
2022/07/10 01:08:34;;;;;;;;;3.75;3.25;;;;;22.98;39.63;102195.75;4920556;28;46072;-45
2022/07/10 01:11:00;;;;;;;;;3.50;2.00;;;;;22.98;39.79;102198.41;4921073;28;45426;-49
2022/07/10 01:13:26;;;;;;;;;6.00;3.00;;;;;22.96;40.17;102197.59;4920757;28;45265;-47
2022/07/10 01:15:52;;;;;;;;;3.50;3.50;;;;;22.94;40.15;102188.88;4921415;28;45480;-46
2022/07/10 01:18:18;;;;;;;;;3.00;3.00;;;;;22.90;40.16;102195.22;4920652;28;46511;-50
2022/07/10 01:20:43;;;;;;;;;3.50;3.50;;;;;22.89;40.18;102196.13;4920541;28;45344;-47
2022/07/10 01:23:08;;;;;;;;;2.00;2.00;;;;;22.87;39.93;102198.84;4920721;28;45388;-45
2022/07/10 01:25:34;;;;;;;;;4.25;3.50;;;;;22.84;40.13;102194.56;4920700;28;45326;-45
2022/07/10 01:27:59;;;;;;;;;2.50;2.50;;;;;22.82;40.12;102200.88;4920496;28;46044;-47
2022/07/10 01:30:25;;;;;;;;;3.00;3.00;;;;;22.79;40.34;102191.25;4919772;28;45363;-44
2022/07/10 01:32:52;;;;;;;;;5.00;3.00;;;;;22.79;40.40;102190.41;4921092;28;45474;-45
2022/07/10 01:35:18;;;;;;;;;4.00;3.00;;;;;22.79;40.39;102185.13;4920803;28;45196;-45
2022/07/10 01:37:44;;;;;;;;;3.25;3.25;;;;;22.77;40.25;102190.47;4920110;28;45287;-47
2022/07/10 01:40:10;;;;;;;;;4.00;4.00;;;;;22.77;40.50;102192.25;4920530;28;45735;-44
2022/07/10 01:42:37;;;;;;;;;5.00;4.00;;;;;22.76;40.48;102196.69;4920220;28;45312;-44
2022/07/10 01:45:04;;;;;;;;;4.75;3.50;;;;;22.74;41.01;102192.38;4920614;28;45330;-46
2022/07/10 01:47:29;;;;;;;;;3.25;3.00;;;;;22.73;40.57;102198.59;4920022;28;47077;-45
2022/07/10 01:49:55;;;;;;;;;3.00;3.00;;;;;22.69;40.65;102185.53;4920233;28;45380;-45
2022/07/10 01:52:20;;;;;;;;;2.25;2.25;;;;;22.66;40.39;102190.06;4920676;28;45311;-46
2022/07/10 01:54:47;;;;;;;;;4.50;3.00;;;;;22.65;40.58;102193.66;4920202;28;45556;-44
2022/07/10 01:57:13;;;;;;;;;5.00;4.00;;;;;22.63;40.90;102200.78;4920144;28;46155;-44
2022/07/10 01:59:39;;;;;;;;;2.25;2.25;;;;;22.60;40.79;102196.47;4919914;28;45324;-48
2022/07/10 02:02:04;;;;;;;;;2.50;2.50;;;;;22.59;40.77;102197.41;4920449;28;45387;-47
2022/07/10 02:04:41;;;;;;;;;3.00;3.00;;;;;22.58;40.75;102195.69;4920171;28;45674;-49
2022/07/10 02:07:07;;;;;;;;;4.75;3.00;;;;;22.54;40.79;102188.81;4919971;28;46055;-49
2022/07/10 02:09:32;;;;;;;;;3.00;3.00;;;;;22.53;40.95;102189.75;4919784;28;45432;-48
2022/07/10 02:11:58;;;;;;;;;3.75;3.75;;;;;22.50;40.80;102193.38;4920167;28;45372;-50
2022/07/10 02:14:23;;;;;;;;;4.50;3.25;;;;;22.47;40.67;102204.06;4920625;28;45537;-46
2022/07/10 02:16:48;;;;;;;;;3.00;3.00;;;;;22.45;40.78;102203.28;4919544;28;46293;-44
2022/07/10 02:19:14;;;;;;;;;3.75;3.00;;;;;22.43;40.76;102205.13;4919772;28;45360;-44
2022/07/10 02:21:39;;;;;;;;;3.00;3.00;;;;;22.42;40.96;102202.53;4919821;28;45345;-44
2022/07/10 02:24:05;;;;;;;;;5.00;3.00;;;;;22.40;41.04;102197.31;4920040;28;45520;-44
2022/07/10 02:26:30;;;;;;;;;4.25;3.00;;;;;22.37;40.93;102187.72;4918103;28;47453;-44
2022/07/10 02:28:55;;;;;;;;;3.50;3.00;;;;;22.36;40.66;102186.00;4919513;28;45293;-44
2022/07/10 02:31:21;;;;;;;;;3.00;3.00;;;;;22.34;40.76;102185.22;4920178;28;45332;-44
2022/07/10 02:33:46;;;;;;;;;2.50;2.50;;;;;22.35;41.07;102186.94;4919735;28;45623;-50
2022/07/10 02:36:11;;;;;;;;;2.00;2.00;;;;;22.37;40.78;102179.81;4919724;28;48423;-45
2022/07/10 02:38:37;;;;;;;;;3.00;3.00;;;;;22.41;40.88;102180.56;4919439;28;45352;-43
2022/07/10 02:41:02;;;;;;;;;3.75;3.75;;;;;22.46;41.04;102178.56;4919455;28;45288;-44
2022/07/10 02:43:27;;;;;;;;;4.00;3.00;;;;;22.50;40.98;102180.16;4919469;28;45340;-43
2022/07/10 02:45:52;;;;;;;;;3.50;2.50;;;;;22.54;40.77;102175.59;4919647;28;45305;-43
2022/07/10 02:48:18;;;;;;;;;3.25;3.25;;;;;22.59;40.85;102180.69;4919064;28;53536;-42
2022/07/10 02:50:43;;;;;;;;;5.00;3.75;;;;;22.62;40.71;102170.84;4919257;28;45261;-44
2022/07/10 02:53:09;;;;;;;;;3.00;3.00;;;;;22.65;40.99;102168.06;4919546;28;45265;-44
2022/07/10 02:55:34;;;;;;;;;4.50;3.25;;;;;22.69;40.84;102160.88;4919162;28;45348;-44
2022/07/10 02:58:00;;;;;;;;;5.00;3.75;;;;;22.72;40.85;102163.38;4919390;28;45295;-44
2022/07/10 03:00:26;;;;;;;;;3.50;2.25;;;;;22.74;40.61;102155.38;4919190;28;45787;-44
2022/07/10 03:02:53;;;;;;;;;3.75;3.25;;;;;22.77;40.66;102163.19;4919712;28;45522;-44
2022/07/10 03:05:19;;;;;;;;;3.00;3.00;;;;;22.79;40.95;102164.81;4919138;28;46960;-43
2022/07/10 03:07:44;;;;;;;;;2.25;2.25;;;;;22.81;40.58;102164.78;4919023;28;45831;-44
2022/07/10 03:10:10;;;;;;;;;4.00;4.00;;;;;22.83;40.63;102161.13;4918584;28;53460;-45
2022/07/10 03:12:36;;;;;;;;;4.00;3.00;;;;;22.85;40.56;102168.97;4919030;28;45451;-46
2022/07/10 03:15:02;;;;;;;;;3.25;3.25;;;;;22.88;40.51;102173.25;4918920;28;47193;-44
2022/07/10 03:17:27;;;;;;;;;3.00;3.00;;;;;22.90;40.40;102168.78;4918625;28;45189;-43
2022/07/10 03:19:53;;;;;;;;;3.00;3.00;;;;;22.92;40.74;102164.28;4902121;28;45343;-44
2022/07/10 03:22:18;;;;;;;;;3.00;3.00;;;;;22.93;40.45;102166.84;4919314;28;45173;-45
2022/07/10 03:24:46;;;;;;;;;4.00;3.25;;;;;22.95;40.40;102166.81;4918511;28;46113;-45
2022/07/10 03:27:12;;;;;;;;;3.00;2.00;;;;;22.95;40.22;102167.63;4918740;28;45500;-44
2022/07/10 03:29:37;;;;;;;;;4.50;4.50;;;;;22.96;40.31;102155.31;4901661;28;45412;-44
2022/07/10 03:32:04;;;;;;;;;4.50;3.00;;;;;22.96;40.47;102157.94;4918726;28;45312;-46
2022/07/10 03:34:30;;;;;;;;;3.00;3.00;;;;;22.97;40.39;102157.03;4918537;28;47038;-45
2022/07/10 03:36:55;;;;;;;;;3.75;2.50;;;;;22.97;40.45;102157.03;4918606;28;45579;-44
2022/07/10 03:39:20;;;;;;;;;5.50;3.00;;;;;22.98;40.37;102164.03;4919052;28;45453;-44
2022/07/10 03:41:46;;;;;;;;;4.25;2.75;;;;;22.99;40.24;102161.31;4917493;28;45466;-44
2022/07/10 03:44:11;;;;;;;;;2.50;2.50;;;;;23.00;40.45;102160.38;4918407;28;46046;-44
2022/07/10 03:46:36;;;;;;;;;3.00;3.00;;;;;23.00;40.43;102157.72;4918193;28;49431;-43
2022/07/10 03:49:01;;;;;;;;;3.75;3.00;;;;;23.02;40.17;102160.28;4918406;28;47446;-44
2022/07/10 03:51:27;;;;;;;;;3.00;3.00;;;;;23.02;40.04;102160.28;4918621;28;45371;-45
2022/07/10 03:53:52;;;;;;;;;3.75;2.75;;;;;23.03;39.90;102155.88;4918174;28;46123;-44
2022/07/10 03:59:01;;;;;;;;;5.00;4.00;;;;;23.03;39.92;102156.72;4904248;28;45599;-44
2022/07/10 04:01:27;;;;;;;;;5.00;4.00;;;;;23.01;39.95;102154.16;4918094;28;45270;-44
2022/07/10 04:03:52;;;;;;;;;3.50;3.50;;;;;23.02;40.29;102155.00;4918455;28;48566;-47
2022/07/10 04:06:17;;;;;;;;;3.25;3.25;;;;;23.03;40.01;102161.19;4918484;28;45407;-46
2022/07/10 04:08:43;;;;;;;;;3.00;3.00;;;;;23.02;40.30;102157.66;4917667;28;54630;-44
2022/07/10 04:11:08;;;;;;;;;3.25;2.00;;;;;23.01;39.98;102153.28;4918596;28;45297;-44
2022/07/10 04:13:34;;;;;;;;;5.00;5.00;;;;;23.00;40.24;102144.50;4917852;28;45416;-45
2022/07/10 04:15:59;;;;;;;;;4.00;4.00;;;;;23.01;40.29;102153.28;4901039;28;45497;-45
2022/07/10 04:18:24;;;;;;;;;4.25;4.25;;;;;23.01;40.21;102156.81;4917995;28;59614;-45
2022/07/10 04:20:50;;;;;;;;;4.50;2.00;;;;;23.02;40.28;102155.00;4918764;28;45443;-45
2022/07/10 04:23:15;;;;;;;;;2.67;2.67;;;;;23.02;40.16;102152.38;4917578;28;61283;-46
2022/07/10 04:25:40;;;;;;;;;3.00;3.00;;;;;23.02;40.20;102152.38;4918042;28;45364;-47
2022/07/10 04:28:05;;;;;;;;;4.25;3.25;;;;;23.01;40.28;102159.44;4918156;28;45495;-45
2022/07/10 04:30:31;;;;;;;;;3.50;3.50;;;;;23.02;40.09;102155.00;4918096;28;45312;-44
2022/07/10 04:32:56;;;;;;;;;4.75;4.00;;;;;23.02;40.01;102165.59;4918012;28;46092;-46
2022/07/10 04:35:22;;;;;;;;;4.00;4.00;;;;;23.03;39.94;102161.19;4918310;28;45410;-45
2022/07/10 04:37:47;;;;;;;;;2.00;2.00;;;;;23.02;40.10;102160.28;4917369;28;50832;-44
2022/07/10 04:40:12;;;;;;;;;4.25;3.00;;;;;23.01;40.06;102155.94;4918273;28;45300;-45
2022/07/10 04:42:38;;;;;;;;;4.00;4.00;;;;;23.01;40.08;102159.44;4917585;28;46209;-45
2022/07/10 04:45:03;;;;;;;;;3.00;3.00;;;;;23.03;40.11;102161.19;4917729;28;45367;-44
2022/07/10 04:47:28;;;;;;;;;3.75;3.25;;;;;23.03;40.24;102158.53;4917795;28;45389;-45
2022/07/10 04:49:54;;;;;;;;;5.50;3.50;;;;;23.03;40.27;102164.66;4918351;28;45521;-44
2022/07/10 04:52:19;;;;;;;;;4.00;3.00;;;;;23.03;40.23;102156.72;4917891;28;47139;-44
2022/07/10 04:54:44;;;;;;;;;3.50;3.50;;;;;23.04;39.95;102160.25;4916396;28;49710;-45
2022/07/10 04:57:10;;;;;;;;;3.75;3.00;;;;;23.04;40.16;102161.09;4917466;28;45269;-44
2022/07/10 04:59:35;;;;;;;;;4.00;2.25;;;;;23.04;39.59;102158.44;4917467;28;48740;-45
2022/07/10 05:02:00;;;;;;;;;3.00;3.00;;;;;23.04;39.77;102154.97;4916813;28;59430;-45
2022/07/10 05:04:25;;;;;;;;;4.25;4.00;;;;;23.05;40.21;102159.28;4918127;28;45376;-44
2022/07/10 05:06:51;;;;;;;;;3.75;3.75;;;;;23.05;40.08;102154.00;4921350;28;45303;-46
2022/07/10 05:09:19;;;;;;;;;3.25;3.25;;;;;23.05;39.98;102159.28;4921056;28;45364;-45
2022/07/10 05:11:45;;;;;;;;;3.50;3.50;;;;;23.04;39.83;102158.44;4920857;28;46187;-44
2022/07/10 05:14:10;;;;;;;;;4.50;3.00;;;;;23.05;39.98;102164.59;4920647;28;45325;-44
2022/07/10 05:16:35;;;;;;;;;4.00;3.75;;;;;23.04;40.03;102161.09;4920902;28;45400;-46
2022/07/10 05:19:01;;;;;;;;;3.00;3.00;;;;;23.06;40.15;102167.19;4920333;28;49510;-44
2022/07/10 05:21:26;;;;;;;;;2.50;2.50;;;;;23.06;40.15;102164.53;4920576;28;46370;-44
2022/07/10 05:23:52;;;;;;;;;4.75;4.75;;;;;23.07;40.15;102163.59;4920905;28;45181;-45
2022/07/10 05:26:18;;;;;;;;;5.75;4.00;;;;;23.07;40.24;102163.59;4920477;28;45276;-45
2022/07/10 05:28:43;;;;;;;;;3.50;3.50;;;;;23.08;39.89;102169.75;4920719;28;45343;-44
2022/07/10 05:31:08;;;;;;;;;3.75;3.00;;;;;23.08;39.96;102161.81;4920235;28;45356;-44
2022/07/10 05:33:34;;;;;;;;;4.00;4.00;;;;;23.05;40.00;102165.47;4920469;28;45309;-45
2022/07/10 05:35:59;;;;;;;;;4.25;3.50;;;;;23.04;39.92;102166.38;4920288;28;45469;-44
2022/07/10 05:38:24;;;;;;;;;4.25;3.00;;;;;23.04;39.98;102166.38;4920964;28;45312;-45
2022/07/10 05:40:50;;;;;;;;;5.00;4.00;;;;;23.04;39.97;102163.75;4920123;28;51528;-44
2022/07/10 05:43:16;;;;;;;;;4.00;4.00;;;;;23.01;39.98;102172.66;4920099;28;45760;-45
2022/07/10 05:45:41;;;;;;;;;3.75;3.75;;;;;23.00;39.72;102178.00;4920618;28;45975;-44
2022/07/10 05:48:06;;;;;;;;;5.50;4.00;;;;;22.97;39.73;102179.00;4920427;28;45244;-49
2022/07/10 05:50:32;;;;;;;;;3.00;2.75;;;;;22.93;39.77;102182.72;4920331;28;46236;-49
2022/07/10 05:52:58;;;;;;;;;3.50;3.00;;;;;22.92;39.88;102180.16;4920077;28;45352;-45
2022/07/10 05:55:23;;;;;;;;;3.75;3.75;;;;;22.91;40.15;102179.31;4920806;28;45399;-44
2022/07/10 05:57:50;;;;;;;;;4.00;2.75;;;;;22.91;40.04;102176.66;4920537;28;45545;-55
2022/07/10 06:00:15;;;;;;;;;3.25;2.75;;;;;22.92;39.88;102182.78;4919765;28;47376;-44
2022/07/10 06:02:41;;;;;;;;;3.00;3.00;;;;;22.93;39.81;102187.16;4920107;28;45297;-44
2022/07/10 06:05:07;;;;;;;;;1.50;1.50;;;;;22.94;39.68;102186.22;4919943;28;45264;-44
2022/07/10 06:07:32;;;;;;;;;4.00;3.50;;;;;22.93;39.57;102180.06;4920285;28;45644;-45
2022/07/10 06:09:57;;;;;;;;;2.75;2.75;;;;;22.93;39.87;102181.88;4919686;28;45570;-44
2022/07/10 06:12:23;;;;;;;;;3.00;3.00;;;;;22.94;39.48;102183.59;4920300;28;45305;-45
2022/07/10 06:14:48;;;;;;;;;2.75;2.75;;;;;22.94;39.93;102178.28;4919892;28;45454;-44
2022/07/10 06:17:13;;;;;;;;;3.00;3.00;;;;;22.94;39.70;102184.44;4919687;28;45372;-46
2022/07/10 06:19:39;;;;;;;;;3.75;3.75;;;;;22.97;39.62;102180.81;4919723;28;46091;-44
2022/07/10 06:24:48;;;;;;;;;4.00;3.50;;;;;22.99;39.57;102178.94;4919986;28;45764;-44
2022/07/10 06:27:13;;;;;;;;;4.00;3.50;;;;;23.00;39.60;102178.00;4919674;28;45681;-45
2022/07/10 06:29:39;;;;;;;;;5.75;3.25;;;;;23.00;39.38;102168.31;4918326;28;46467;-44
2022/07/10 06:32:05;;;;;;;;;3.50;3.00;;;;;22.98;39.30;102170.16;4919411;28;45486;-45
2022/07/10 06:34:30;;;;;;;;;3.00;3.00;;;;;22.97;39.04;102172.88;4919785;28;45327;-45
2022/07/10 06:36:55;;;;;;;;;6.00;4.00;;;;;22.97;39.29;102172.88;4919990;28;45312;-44
2022/07/10 06:39:21;;;;;;;;;5.00;3.50;;;;;22.97;39.53;102170.25;4919391;28;45447;-45
2022/07/10 06:41:46;;;;;;;;;4.00;4.00;;;;;22.96;39.55;102165.88;4919366;28;45359;-46
2022/07/10 06:44:11;;;;;;;;;5.00;3.00;;;;;22.94;39.38;102167.72;4918650;28;57828;-43
2022/07/10 06:46:37;;;;;;;;;3.75;3.75;;;;;22.94;39.63;102163.28;4919527;28;45579;-44
2022/07/10 06:49:02;;;;;;;;;3.75;3.50;;;;;22.93;39.73;102172.13;4919043;28;45275;-43
2022/07/10 06:51:28;;;;;;;;;2.00;2.00;;;;;22.95;39.63;102169.44;4919608;28;45177;-44
2022/07/10 06:53:56;;;;;;;;;5.50;3.00;;;;;22.95;39.36;102177.38;4919452;28;45776;-44
2022/07/10 06:56:21;;;;;;;;;2.50;2.50;;;;;22.95;39.35;102172.94;4919393;28;45538;-44
2022/07/10 06:58:46;;;;;;;;;4.00;4.00;;;;;22.96;39.24;102177.28;4919143;28;45304;-43
2022/07/10 07:01:12;;;;;;;;;2.75;2.00;;;;;22.98;39.10;102169.31;4918993;28;45388;-44
2022/07/10 07:03:37;;;;;;;;;5.25;4.00;;;;;23.00;39.33;102172.72;4918982;28;45434;-44
2022/07/10 07:06:02;;;;;;;;;3.00;3.00;;;;;23.00;39.26;102178.00;4919202;28;45533;-46
2022/07/10 07:08:31;;;;;;;;;3.00;3.00;;;;;23.01;39.09;102172.66;4919239;28;46133;-46
2022/07/10 07:10:57;;;;;;;;;4.00;3.00;;;;;23.03;39.23;102182.31;4919059;28;45443;-44
2022/07/10 07:13:22;;;;;;;;;2.00;2.00;;;;;23.03;39.15;102172.59;4919128;28;45739;-45
2022/07/10 07:15:58;;;;;;;;;2.00;2.00;;;;;23.04;38.59;102174.31;4902129;28;45490;-44
2022/07/10 07:18:32;;;;;;;;;2.25;2.25;;;;;23.05;38.86;102176.03;4918694;28;47348;-45
2022/07/10 07:23:42;;;;;;;;;2.75;2.75;;;;;23.05;38.53;102170.75;4918894;28;45169;-44
2022/07/10 07:26:08;;;;;;;;;2.00;2.00;;;;;23.06;38.80;102167.19;4918930;28;45225;-44
2022/07/10 07:28:33;;;;;;;;;4.00;3.00;;;;;23.07;38.57;102176.81;4917724;28;46106;-44
2022/07/10 07:30:59;;;;;;;;;2.00;2.00;;;;;23.08;38.66;102172.38;4918779;28;45236;-44
2022/07/10 07:33:24;;;;;;;;;3.50;3.00;;;;;23.10;38.18;102173.19;4901993;28;45344;-44
2022/07/10 07:35:50;;;;;;;;;3.00;1.25;;;;;23.10;38.42;102171.38;4918853;28;45962;-44
2022/07/10 07:38:15;;;;;;;;;4.25;2.00;;;;;23.13;38.47;102162.47;4918268;28;45261;-46
2022/07/10 07:40:41;;;;;;;;;1.50;1.50;;;;;23.13;38.55;102162.47;4918524;28;45363;-47
2022/07/10 07:43:07;;;;;;;;;2.25;2.25;;;;;23.13;38.38;102157.19;4918295;28;45357;-45
2022/07/10 07:45:32;;;;;;;;;2.00;2.00;;;;;23.14;38.31;102153.63;4918783;28;45612;-44
2022/07/10 07:48:01;;;;;;;;;2.00;2.00;;;;;23.14;37.84;102154.47;4918334;28;45949;-44
2022/07/10 07:50:31;;;;;;;;;3.75;3.75;;;;;23.15;38.24;102148.25;4918806;28;45446;-44
2022/07/10 07:52:58;;;;;;;;;3.25;2.25;;;;;23.17;38.08;102151.69;4918633;28;45285;-44
2022/07/10 07:55:24;;;;;;;;;2.50;2.50;;;;;23.17;38.33;102138.47;4918742;28;45552;-44
2022/07/10 07:57:54;;;;;;;;;3.00;2.00;;;;;23.17;38.26;102135.81;4918349;28;46016;-44
2022/07/10 08:00:22;;;;;;;;;4.00;2.75;;;;;23.19;37.82;102142.81;4918332;28;45392;-44
2022/07/10 08:02:49;;;;;;;;;2.50;2.00;;;;;23.19;38.49;102143.69;4918524;28;45426;-44
2022/07/10 08:05:15;;;;;;;;;3.00;3.00;;;;;23.22;38.27;102147.97;4918110;28;45556;-44
2022/07/10 08:07:43;;;;;;;;;3.00;3.00;;;;;23.23;37.87;102150.56;4918294;28;46037;-44
2022/07/10 08:10:11;;;;;;;;;4.00;2.00;;;;;23.24;37.95;102148.78;4917978;28;45553;-44
2022/07/10 08:12:38;;;;;;;;;2.00;2.00;;;;;23.26;37.97;102146.91;4918433;28;45687;-45
2022/07/10 08:15:06;;;;;;;;;3.00;3.00;;;;;23.27;37.53;102149.47;4918095;28;45336;-44
2022/07/10 08:17:31;;;;;;;;;2.25;2.25;;;;;23.27;37.21;102144.19;4918277;28;45457;-44
2022/07/10 08:19:56;;;;;;;;;2.50;2.00;;;;;23.26;37.59;102136.34;4917858;28;45429;-44
2022/07/10 08:22:22;;;;;;;;;3.00;3.00;;;;;23.27;37.41;102141.53;4918352;28;45324;-46
2022/07/10 08:24:47;;;;;;;;;6.50;2.50;;;;;23.27;37.23;102135.41;4918195;28;45514;-44
2022/07/10 08:27:12;;;;;;;;;3.00;3.00;;;;;23.26;37.17;102137.19;4917662;28;48528;-45
2022/07/10 08:29:38;;;;;;;;;1.00;1.00;;;;;23.28;37.20;102135.31;4917974;28;45245;-44
2022/07/10 08:32:04;;;;;;;;;2.25;2.00;;;;;23.29;37.37;102136.19;4900814;28;45285;-46
2022/07/10 08:34:30;;;;;;;;;2.50;2.00;;;;;23.30;37.43;102140.56;4918511;28;45334;-44
2022/07/10 08:36:55;;;;;;;;;3.00;3.00;;;;;23.30;36.89;102140.56;4917639;28;46436;-45
2022/07/10 08:39:21;;;;;;;;;4.00;3.00;;;;;23.31;37.27;102140.47;4919870;28;45320;-44
2022/07/10 08:41:50;;;;;;;;;2.25;2.25;;;;;23.33;37.17;102137.75;4921457;28;45323;-44
2022/07/10 08:44:16;;;;;;;;;4.50;2.00;;;;;23.34;36.94;102147.41;4921104;28;45316;-47
2022/07/10 08:46:42;;;;;;;;;2.75;2.75;;;;;23.35;36.91;102135.91;4921090;28;45425;-46
2022/07/10 08:49:13;;;;;;;;;2.00;2.00;;;;;23.35;36.65;102141.19;4920972;28;45185;-44
2022/07/10 08:51:48;;;;;;;;;3.00;3.00;;;;;23.35;36.68;102133.25;4921156;28;45387;-45
2022/07/10 08:54:17;;;;;;;;;3.00;3.00;;;;;23.37;36.67;102128.75;4920945;28;45419;-44
2022/07/10 08:56:43;;;;;;;;;2.00;2.00;;;;;23.36;36.82;102121.75;4921030;28;46102;-44
2022/07/10 08:59:09;;;;;;;;;2.00;2.00;;;;;23.38;36.47;102125.19;4920756;28;45350;-44
2022/07/10 09:01:34;;;;;;;;;3.75;3.75;;;;;23.40;36.75;102122.47;4921138;28;45257;-44
2022/07/10 09:04:00;;;;;;;;;3.00;3.00;;;;;23.39;36.30;102116.31;4904044;28;45527;-47
2022/07/10 09:06:28;;;;;;;;;2.25;2.25;;;;;23.40;36.62;102115.41;4920881;28;45925;-47
2022/07/10 09:08:59;;;;;;;;;2.00;2.00;;;;;23.42;36.63;102116.19;4903503;28;45868;-44
2022/07/10 09:11:28;;;;;;;;;3.00;2.00;;;;;23.43;36.57;102114.38;4920909;28;45279;-45
2022/07/10 09:13:56;;;;;;;;;3.00;2.00;;;;;23.43;36.67;102107.28;4920612;28;45470;-45
2022/07/10 09:16:29;;;;;;;;;2.25;2.25;;;;;23.44;36.76;102101.06;4920695;28;46209;-44
2022/07/10 09:18:55;;;;;;;;;5.50;4.00;;;;;23.44;36.49;102095.78;4920280;28;45435;-45
2022/07/10 09:21:21;;;;;;;;;2.25;2.25;;;;;23.46;36.47;102096.56;4920817;28;45455;-43
2022/07/10 09:23:47;;;;;;;;;4.75;2.50;;;;;23.47;36.15;102098.28;4920825;28;45457;-49
2022/07/10 09:26:12;;;;;;;;;2.25;2.25;;;;;23.46;36.69;102088.63;4920262;28;45417;-44
2022/07/10 09:28:37;;;;;;;;;1.50;1.50;;;;;23.49;36.54;102086.78;4920318;28;45427;-45
2022/07/10 09:31:03;;;;;;;;;2.75;2.75;;;;;23.49;36.53;102092.91;4920620;28;45310;-46
2022/07/10 09:33:30;;;;;;;;;4.25;2.00;;;;;23.51;36.31;102092.84;4920879;28;45635;-45
2022/07/10 09:36:10;;;;;;;;;4.00;3.00;;;;;23.51;36.54;102093.69;4920249;28;46451;-44
2022/07/10 09:38:46;;;;;;;;;3.00;3.00;;;;;23.52;36.57;102092.75;4920386;28;45423;-45
2022/07/10 09:41:16;;;;;;;;;4.00;3.50;;;;;23.53;36.47;102096.28;4920334;28;45494;-47
2022/07/10 09:43:45;;;;;;;;;2.75;2.75;;;;;23.54;36.39;102092.69;4920589;28;45493;-48
2022/07/10 09:46:11;;;;;;;;;3.75;2.50;;;;;23.56;36.32;102096.13;4919964;28;46514;-45
2022/07/10 09:48:37;;;;;;;;;4.00;4.00;;;;;23.56;36.44;102098.75;4920216;28;45352;-47
2022/07/10 09:51:06;;;;;;;;;5.00;2.00;;;;;23.56;36.43;102086.41;4919694;28;45624;-45
2022/07/10 09:53:32;;;;;;;;;3.00;3.00;;;;;23.59;36.46;102095.97;4920821;28;45649;-47
2022/07/10 09:56:00;;;;;;;;;2.00;2.00;;;;;23.60;36.10;102087.09;4919853;28;46144;-46
2022/07/10 09:58:32;;;;;;;;;3.00;3.00;;;;;23.60;36.31;102093.25;4920232;28;45795;-44
2022/07/10 10:00:58;;;;;;;;;2.00;2.00;;;;;23.62;36.18;102090.53;4920018;28;45506;-45
2022/07/10 10:03:25;;;;;;;;;2.75;2.75;;;;;23.62;36.36;102085.25;4920312;28;45475;-46
2022/07/10 10:05:55;;;;;;;;;3.00;3.00;;;;;23.63;36.23;102093.09;4919948;28;45472;-47
2022/07/10 10:08:42;;;;;;;;;3.75;3.00;;;;;23.64;36.32;102078.09;4919990;28;45234;-46
2022/07/10 10:11:10;;;;;;;;;5.00;2.25;;;;;23.65;36.55;102082.44;4919787;28;45356;-45
2022/07/10 10:13:35;;;;;;;;;5.25;3.00;;;;;23.66;36.15;102081.50;4920474;28;45541;-45
2022/07/10 10:16:02;;;;;;;;;3.50;2.75;;;;;23.67;36.37;102077.94;4919124;28;54068;-45
2022/07/10 10:18:29;;;;;;;;;3.50;2.00;;;;;23.68;36.13;102076.16;4919691;28;45415;-45
2022/07/10 10:20:55;;;;;;;;;1.75;1.75;;;;;23.69;36.24;102075.22;4919439;28;45205;-44
2022/07/10 10:23:24;;;;;;;;;3.25;2.75;;;;;23.69;36.20;102065.47;4919891;28;45313;-45
2022/07/10 10:25:52;;;;;;;;;3.00;2.00;;;;;23.71;36.23;102068.03;4919526;28;46116;-45
2022/07/10 10:28:23;;;;;;;;;3.00;3.00;;;;;23.71;35.94;102070.69;4919273;28;45464;-46
2022/07/10 10:30:52;;;;;;;;;4.00;2.00;;;;;23.71;36.42;102060.97;4919691;28;45882;-44
2022/07/10 10:33:42;;;;;;;;;2.25;2.25;;;;;23.73;35.96;102077.63;4919510;28;45677;-44
2022/07/10 10:36:09;;;;;;;;;2.00;2.00;;;;;23.73;35.87;102063.53;4919300;28;45428;-46
2022/07/10 10:38:46;;;;;;;;;3.00;3.00;;;;;23.74;36.10;102057.31;4919769;28;45332;-44
2022/07/10 10:41:38;;;;;;;;;3.00;3.00;;;;;23.74;36.00;102057.31;4919292;28;45351;-46
2022/07/10 10:44:07;;;;;;;;;2.00;2.00;;;;;23.75;36.14;102057.25;4918164;28;45546;-45
2022/07/10 10:46:33;;;;;;;;;3.50;1.75;;;;;23.77;36.13;102054.50;4918993;28;45419;-48
2022/07/10 10:49:06;;;;;;;;;3.75;2.00;;;;;23.76;35.90;102044.84;4902001;28;45353;-46
2022/07/10 10:52:00;;;;;;;;;1.00;1.00;;;;;23.77;36.08;102044.75;4919618;28;45288;-46
2022/07/10 10:54:27;;;;;;;;;2.75;2.75;;;;;23.77;36.32;102047.41;4919435;28;45343;-46
2022/07/10 10:57:12;;;;;;;;;2.25;2.25;;;;;23.79;36.00;102044.72;4919226;28;45453;-45
2022/07/10 10:59:49;;;;;;;;;2.75;2.00;;;;;23.80;36.42;102029.66;4919410;28;45661;-44
2022/07/10 11:02:29;;;;;;;;;4.00;3.00;;;;;23.81;36.16;102036.69;4917890;28;45257;-46
2022/07/10 11:05:22;;;;;;;;;4.00;2.00;;;;;23.81;36.07;102031.38;4919185;28;45503;-47
2022/07/10 11:07:58;;;;;;;;;5.00;3.00;;;;;23.82;36.22;102027.81;4919054;28;47141;-44
2022/07/10 11:10:40;;;;;;;;;2.25;2.25;;;;;23.82;36.46;102022.50;4919027;28;45707;-45
2022/07/10 11:13:07;;;;;;;;;3.25;3.25;;;;;23.84;36.15;102023.28;4918987;28;45288;-47
2022/07/10 11:15:36;;;;;;;;;2.75;2.75;;;;;23.84;36.06;102015.34;4919279;28;45532;-45
2022/07/10 11:18:16;;;;;;;;;2.00;2.00;;;;;23.85;36.59;102011.78;4901625;28;48590;-43
2022/07/10 11:20:46;;;;;;;;;3.75;3.00;;;;;23.86;36.07;102005.53;4918744;28;45399;-44
2022/07/10 11:23:49;;;;;;;;;3.50;2.50;;;;;23.87;36.41;102002.81;4918745;28;45489;-44
2022/07/10 11:26:36;;;;;;;;;2.00;2.00;;;;;23.88;36.42;102006.31;4918996;28;45609;-43
2022/07/10 11:29:05;;;;;;;;;2.25;2.25;;;;;23.88;35.99;102007.19;4918390;28;47002;-45
2022/07/10 11:31:34;;;;;;;;;2.00;2.00;;;;;23.89;36.49;101997.44;4918706;28;45741;-44